Time;durP1;ratioP1;P1;durP2;ratioP2;P2;SDS_P1;SDS_P2;PMS_P1;PMS_P2;Temp;Humidity;BMP_temperature;BMP_pressure;BME280_temperature;BME280_humidity;BME280_pressure;Samples;Min_cycle;Max_cycle;Signal;HPM_P1;HPM_P2
2022/06/01 00:01:29;;;;;;;6.77;3.90;;;10.80;85.00;;;;;;5066169;28;20176;-84
2022/06/01 00:03:54;;;;;;;3.90;3.60;;;10.80;85.00;;;;;;5078630;28;20219;-83
2022/06/01 00:06:20;;;;;;;3.20;2.90;;;10.90;85.00;;;;;;5077391;28;20173;-85
2022/06/01 00:08:46;;;;;;;4.47;3.20;;;10.90;84.80;;;;;;5076401;28;20241;-84
2022/06/01 00:11:11;;;;;;;3.57;3.30;;;10.90;84.40;;;;;;5077012;28;20168;-84
2022/06/01 00:13:37;;;;;;;5.07;3.90;;;10.90;84.00;;;;;;5073473;28;20176;-85
2022/06/01 00:16:03;;;;;;;8.27;4.10;;;10.80;83.70;;;;;;5072753;28;20241;-85
2022/06/01 00:18:29;;;;;;;4.87;3.80;;;10.80;83.80;;;;;;5072099;28;20204;-86
2022/06/01 00:20:55;;;;;;;5.77;4.30;;;10.60;84.00;;;;;;5072074;28;20180;-87
2022/06/01 00:23:21;;;;;;;5.97;4.17;;;10.40;84.50;;;;;;5072531;28;20236;-86
2022/06/01 00:25:47;;;;;;;4.27;3.97;;;10.30;85.00;;;;;;5071639;28;20168;-87
2022/06/01 00:28:13;;;;;;;4.60;4.20;;;10.10;85.60;;;;;;5072129;28;20191;-86
2022/06/01 00:30:39;;;;;;;4.53;4.23;;;10.00;86.00;;;;;;5073236;28;20240;-86
2022/06/01 00:33:05;;;;;;;6.83;4.37;;;10.00;86.20;;;;;;5072566;28;20571;-86
2022/06/01 00:35:31;;;;;;;5.07;4.57;;;9.90;86.30;;;;;;5071258;28;20187;-87
2022/06/01 00:37:57;;;;;;;4.73;3.93;;;9.90;86.40;;;;;;5071363;28;20233;-86
2022/06/01 00:40:26;;;;;;;4.40;4.10;;;10.00;86.30;;;;;;5070744;28;20199;-86
2022/06/01 00:42:57;;;;;;;5.20;3.90;;;10.10;86.30;;;;;;5071519;28;20254;-84
2022/06/01 00:45:26;;;;;;;5.17;4.60;;;10.10;86.00;;;;;;5071180;28;20220;-87
2022/06/01 00:47:52;;;;;;;4.80;4.37;;;9.90;86.00;;;;;;5071639;28;20204;-86
2022/06/01 00:50:36;;;;;;;6.03;4.37;;;9.70;86.20;;;;;;5071528;28;20221;-87
2022/06/01 00:53:11;;;;;;;5.87;5.37;;;9.30;87.10;;;;;;5074388;28;20163;-86
2022/06/01 00:55:53;;;;;;;8.50;6.10;;;9.10;88.10;;;;;;5074851;28;20162;-85
2022/06/01 00:58:28;;;;;;;8.57;5.30;;;9.00;88.90;;;;;;5073476;28;20245;-85
2022/06/01 01:00:55;;;;;;;6.67;5.80;;;9.00;89.40;;;;;;5073282;28;20617;-85
2022/06/01 01:03:25;;;;;;;6.80;6.17;;;8.90;89.50;;;;;;5070471;28;20277;-85
2022/06/01 01:06:11;;;;;;;5.63;5.13;;;9.00;89.60;;;;;;5070785;28;20669;-85
2022/06/01 01:08:37;;;;;;;6.57;5.90;;;9.00;89.50;;;;;;5068422;28;20164;-85
2022/06/01 01:11:05;;;;;;;10.27;5.83;;;9.20;89.40;;;;;;5070171;28;20176;-86
2022/06/01 01:13:30;;;;;;;6.47;5.87;;;9.30;89.10;;;;;;5070338;28;20176;-86
2022/06/01 01:15:56;;;;;;;11.87;6.00;;;9.40;89.00;;;;;;5069454;28;20226;-85
2022/06/01 01:18:27;;;;;;;6.20;5.53;;;9.50;88.80;;;;;;5070736;28;20203;-85
2022/06/01 01:21:05;;;;;;;8.50;5.73;;;9.60;88.70;;;;;;5071226;28;20184;-86
2022/06/01 01:23:31;;;;;;;7.97;6.07;;;9.80;88.80;;;;;;5075281;28;20175;-85
2022/06/01 01:25:57;;;;;;;5.83;5.30;;;9.80;88.70;;;;;;5074426;28;20199;-85
2022/06/01 01:28:22;;;;;;;6.93;6.27;;;9.80;88.60;;;;;;5073166;28;20214;-86
2022/06/01 01:30:58;;;;;;;7.30;6.60;;;9.80;88.60;;;;;;5074001;28;20172;-87
2022/06/01 01:33:27;;;;;;;6.17;5.63;;;9.80;88.60;;;;;;5075237;28;20198;-85
2022/06/01 01:36:04;;;;;;;10.40;6.17;;;9.80;88.60;;;;;;5075414;28;20271;-86
2022/06/01 01:38:43;;;;;;;6.47;4.63;;;9.80;88.50;;;;;;5075869;28;20188;-86
2022/06/01 01:41:32;;;;;;;9.17;5.33;;;9.80;88.40;;;;;;5076012;28;20163;-85
2022/06/01 01:44:04;;;;;;;6.53;5.57;;;9.80;88.40;;;;;;5075785;28;20232;-85
2022/06/01 01:46:30;;;;;;;5.53;5.03;;;9.80;88.70;;;;;;5074072;28;20208;-86
2022/06/01 01:48:56;;;;;;;8.73;5.80;;;9.80;88.70;;;;;;5074120;28;20699;-85
2022/06/01 01:51:24;;;;;;;6.23;5.40;;;9.80;88.80;;;;;;5073010;28;20184;-88
2022/06/01 01:53:50;;;;;;;7.07;5.67;;;9.70;89.00;;;;;;5065977;28;20230;-86
2022/06/01 01:56:46;;;;;;;8.37;5.87;;;9.60;89.30;;;;;;5068376;28;20255;-87
2022/06/01 01:59:28;;;;;;;7.13;5.73;;;9.60;89.60;;;;;;5075368;28;20196;-86
2022/06/01 02:02:05;;;;;;;6.87;6.20;;;9.60;89.70;;;;;;5074879;28;20167;-85
2022/06/01 02:07:55;;;;;;;7.37;5.93;;;9.70;89.60;;;;;;5076027;28;20198;-86
2022/06/01 02:13:06;;;;;;;8.07;6.07;;;9.50;89.40;;;;;;5066513;28;20171;-86
2022/06/01 02:15:38;;;;;;;7.20;6.60;;;9.40;89.40;;;;;;5072860;28;20168;-86
2022/06/01 02:18:09;;;;;;;10.97;6.77;;;9.30;89.70;;;;;;5072313;28;20176;-86
2022/06/01 02:20:41;;;;;;;7.33;6.43;;;9.20;90.00;;;;;;5073948;28;20195;-85
2022/06/01 02:23:11;;;;;;;6.60;5.97;;;9.10;90.30;;;;;;5073848;28;20156;-86
2022/06/01 02:25:38;;;;;;;7.47;6.43;;;9.00;90.40;;;;;;5073781;28;20164;-86
2022/06/01 02:28:04;;;;;;;7.43;6.73;;;9.00;90.40;;;;;;5073476;28;20164;-85
2022/06/01 02:30:38;;;;;;;6.83;6.20;;;8.80;90.40;;;;;;5073721;28;20164;-86
2022/06/01 02:33:05;;;;;;;7.50;6.57;;;8.70;90.50;;;;;;5072743;28;20216;-86
2022/06/01 02:35:36;;;;;;;9.00;6.97;;;8.60;90.80;;;;;;5073184;28;20210;-85
2022/06/01 02:38:07;;;;;;;7.57;6.73;;;8.60;91.10;;;;;;5073970;28;20157;-86
2022/06/01 02:40:32;;;;;;;7.27;6.60;;;8.60;91.30;;;;;;5073528;28;20188;-86
2022/06/01 02:42:58;;;;;;;10.00;6.83;;;8.60;91.40;;;;;;5073746;28;20168;-85
2022/06/01 02:45:26;;;;;;;15.07;7.37;;;8.60;91.30;;;;;;5073583;28;20271;-86
2022/06/01 02:47:54;;;;;;;9.00;7.23;;;8.60;91.40;;;;;;5073651;28;20595;-87
2022/06/01 02:50:24;;;;;;;7.50;6.80;;;8.50;91.30;;;;;;5072716;28;20180;-86
2022/06/01 02:52:50;;;;;;;8.47;6.73;;;8.60;91.40;;;;;;5073434;28;20195;-86
2022/06/01 02:55:17;;;;;;;9.07;6.60;;;8.60;91.30;;;;;;5074160;28;20180;-86
2022/06/01 02:57:43;;;;;;;9.93;6.03;;;8.50;91.00;;;;;;5073443;28;20207;-86
2022/06/01 03:00:17;;;;;;;6.90;6.10;;;8.50;90.90;;;;;;5073169;28;20221;-86
2022/06/01 03:02:44;;;;;;;7.43;6.67;;;8.40;91.00;;;;;;5072472;28;20187;-85
2022/06/01 03:05:11;;;;;;;8.33;6.20;;;8.40;91.10;;;;;;5072208;28;20540;-89
2022/06/01 03:07:36;;;;;;;6.83;6.17;;;8.40;91.10;;;;;;5068847;28;20204;-86
2022/06/01 03:10:02;;;;;;;7.67;6.87;;;8.30;91.10;;;;;;5070083;28;20556;-88
2022/06/01 03:12:28;;;;;;;7.03;6.33;;;8.30;91.30;;;;;;5070527;28;20183;-87
2022/06/01 03:14:53;;;;;;;9.17;7.10;;;8.30;91.30;;;;;;5070413;28;20187;-86
2022/06/01 03:17:19;;;;;;;8.17;6.47;;;8.30;91.40;;;;;;5070041;28;20198;-88
2022/06/01 03:19:44;;;;;;;7.17;6.50;;;8.40;91.40;;;;;;5070445;28;20195;-86
2022/06/01 03:22:10;;;;;;;9.53;6.70;;;8.30;91.30;;;;;;5072056;28;20561;-86
2022/06/01 03:24:35;;;;;;;6.43;5.83;;;8.40;91.40;;;;;;5072405;28;20180;-87
2022/06/01 03:27:02;;;;;;;10.90;6.40;;;8.40;91.30;;;;;;5070766;28;20216;-88
2022/06/01 03:29:27;;;;;;;8.77;6.37;;;8.40;91.30;;;;;;5070964;28;20207;-87
2022/06/01 03:31:53;;;;;;;7.43;6.80;;;8.40;91.30;;;;;;5072147;28;20176;-86
2022/06/01 03:34:19;;;;;;;8.33;6.37;;;8.50;91.40;;;;;;5072118;28;20175;-86
2022/06/01 03:36:46;;;;;;;7.67;6.87;;;8.60;91.30;;;;;;5071835;28;20188;-87
2022/06/01 03:39:11;;;;;;;7.87;6.10;;;8.50;91.20;;;;;;5072355;28;20237;-86
2022/06/01 03:41:37;;;;;;;7.03;6.33;;;8.60;91.20;;;;;;5071424;28;20177;-88
2022/06/01 03:46:47;;;;;;;6.90;5.90;;;8.60;91.20;;;;;;5071975;28;20214;-86
2022/06/01 03:49:12;;;;;;;6.60;5.90;;;8.70;91.20;;;;;;5072643;28;20180;-86
2022/06/01 03:51:38;;;;;;;7.07;6.47;;;8.70;91.20;;;;;;5071843;28;20187;-86
2022/06/01 03:54:06;;;;;;;7.80;6.70;;;8.80;91.40;;;;;;5071297;28;20184;-86
2022/06/01 03:56:32;;;;;;;8.27;7.17;;;8.80;91.40;;;;;;5071898;28;20217;-87
2022/06/01 03:58:58;;;;;;;8.83;7.23;;;8.90;91.40;;;;;;5071221;28;20195;-87
2022/06/01 04:01:24;;;;;;;8.83;6.40;;;9.00;91.50;;;;;;5071119;28;20172;-87
2022/06/01 04:03:50;;;;;;;9.43;6.90;;;9.00;91.60;;;;;;5072250;28;20176;-88
2022/06/01 04:06:15;;;;;;;8.57;7.67;;;9.10;91.70;;;;;;5071699;28;20232;-87
2022/06/01 04:08:41;;;;;;;8.63;7.63;;;9.20;91.80;;;;;;5071872;28;20547;-88
2022/06/01 04:11:07;;;;;;;8.70;7.27;;;9.20;91.80;;;;;;5071381;28;20191;-86
2022/06/01 04:13:33;;;;;;;8.50;7.70;;;9.30;91.80;;;;;;5071200;28;20211;-86
2022/06/01 04:15:59;;;;;;;10.13;7.53;;;9.40;91.70;;;;;;5071553;28;20222;-86
2022/06/01 04:18:24;;;;;;;8.57;7.70;;;9.50;91.50;;;;;;5071393;28;20207;-86
2022/06/01 04:20:53;;;;;;;7.80;7.00;;;9.60;91.40;;;;;;5071680;28;20211;-88
2022/06/01 04:23:18;;;;;;;8.23;7.20;;;9.70;91.20;;;;;;5071362;28;20174;-87
2022/06/01 04:25:44;;;;;;;8.80;7.27;;;9.70;91.00;;;;;;5070690;28;20192;-86
2022/06/01 04:28:10;;;;;;;8.57;7.37;;;9.80;91.00;;;;;;5070605;28;20182;-86
2022/06/01 04:30:36;;;;;;;8.20;7.40;;;10.00;91.10;;;;;;5070632;28;20190;-87
2022/06/01 04:33:02;;;;;;;8.93;6.93;;;10.10;91.10;;;;;;5070796;28;20187;-87
2022/06/01 04:35:28;;;;;;;18.00;8.40;;;10.10;91.00;;;;;;5071147;28;20170;-86
2022/06/01 04:38:12;;;;;;;11.00;7.17;;;10.30;90.90;;;;;;5070298;28;20223;-86
2022/06/01 04:40:41;;;;;;;10.47;7.57;;;10.30;90.90;;;;;;5070177;28;20159;-86
2022/06/01 04:43:06;;;;;;;9.53;8.13;;;10.50;90.90;;;;;;5071357;28;20171;-86
2022/06/01 04:45:32;;;;;;;7.40;6.60;;;10.60;90.90;;;;;;5070864;28;20700;-86
2022/06/01 04:47:57;;;;;;;9.77;6.87;;;10.60;90.70;;;;;;5069705;28;20299;-89
2022/06/01 04:50:23;;;;;;;7.83;7.03;;;10.70;90.40;;;;;;5070168;28;20183;-87
2022/06/01 04:52:49;;;;;;;8.80;6.50;;;10.80;90.20;;;;;;5069824;28;20187;-86
2022/06/01 04:55:14;;;;;;;11.20;7.43;;;10.80;89.90;;;;;;5067554;28;20243;-86
2022/06/01 04:57:40;;;;;;;7.60;6.90;;;10.80;89.60;;;;;;5065414;28;20572;-89
2022/06/01 05:00:08;;;;;;;6.57;5.97;;;10.90;89.40;;;;;;5066194;28;20199;-87
2022/06/01 05:02:34;;;;;;;6.53;5.87;;;10.90;89.20;;;;;;5066751;28;20191;-89
2022/06/01 05:05:00;;;;;;;13.43;5.17;;;11.00;89.10;;;;;;5067531;28;20236;-88
2022/06/01 05:07:25;;;;;;;5.97;4.63;;;10.90;88.80;;;;;;5067301;28;20251;-88
2022/06/01 05:09:51;;;;;;;6.13;5.60;;;11.00;88.90;;;;;;5067770;28;20620;-88
2022/06/01 05:12:16;;;;;;;10.03;5.77;;;11.00;89.00;;;;;;5068883;28;20184;-89
2022/06/01 05:14:42;;;;;;;7.73;5.57;;;11.00;89.10;;;;;;5068152;28;20180;-88
2022/06/01 05:17:07;;;;;;;5.53;4.90;;;11.00;89.10;;;;;;5067084;28;20207;-87
2022/06/01 05:19:34;;;;;;;5.67;5.03;;;11.10;89.30;;;;;;5068428;28;20208;-88
2022/06/01 05:21:59;;;;;;;8.70;5.77;;;11.10;88.50;;;;;;5066744;28;20172;-88
2022/06/01 05:24:25;;;;;;;8.63;5.47;;;11.00;88.10;;;;;;5065581;28;20180;-87
2022/06/01 05:26:51;;;;;;;8.13;5.63;;;11.00;86.80;;;;;;5069607;28;20205;-87
2022/06/01 05:29:16;;;;;;;6.97;5.23;;;11.00;87.00;;;;;;5069507;28;20182;-87
2022/06/01 05:31:44;;;;;;;9.30;5.67;;;11.00;86.80;;;;;;5070402;28;20184;-86
2022/06/01 05:34:09;;;;;;;7.37;5.30;;;11.00;87.00;;;;;;5070490;28;20179;-87
2022/06/01 05:36:35;;;;;;;5.40;4.90;;;11.00;87.50;;;;;;5071066;28;20196;-86
2022/06/01 05:39:01;;;;;;;6.17;5.33;;;11.00;87.60;;;;;;5070019;28;20704;-86
2022/06/01 05:41:26;;;;;;;6.77;5.77;;;11.00;87.80;;;;;;5069444;28;20180;-86
2022/06/01 05:43:53;;;;;;;8.67;5.60;;;10.90;88.10;;;;;;5069156;28;20203;-86
2022/06/01 05:46:19;;;;;;;7.40;5.27;;;10.90;88.60;;;;;;5068623;28;20218;-88
2022/06/01 05:48:44;;;;;;;7.30;6.00;;;10.90;88.90;;;;;;5061604;28;20180;-86
2022/06/01 05:51:10;;;;;;;7.10;6.10;;;10.80;89.00;;;;;;5051966;28;20725;-86
2022/06/01 05:53:36;;;;;;;10.23;5.67;;;10.80;89.10;;;;;;5051776;28;20176;-86
2022/06/01 05:56:01;;;;;;;8.87;5.80;;;10.80;89.30;;;;;;5053026;28;20199;-85
2022/06/01 05:58:29;;;;;;;7.53;6.73;;;10.80;89.40;;;;;;5052874;28;20223;-86
2022/06/01 06:00:59;;;;;;;7.17;6.20;;;10.80;89.70;;;;;;5052654;28;20173;-86
2022/06/01 06:03:26;;;;;;;8.17;6.00;;;10.80;89.90;;;;;;5051866;28;20592;-86
2022/06/01 06:08:39;;;;;;;7.67;6.73;;;10.80;90.10;;;;;;5055916;28;20190;-85
2022/06/01 06:11:06;;;;;;;7.10;6.40;;;10.80;90.20;;;;;;5056718;28;20259;-86
2022/06/01 06:13:33;;;;;;;7.47;6.33;;;10.90;90.30;;;;;;5056666;28;20172;-87
2022/06/01 06:15:58;;;;;;;7.13;6.40;;;10.90;90.30;;;;;;5056192;28;20192;-86
2022/06/01 06:18:24;;;;;;;8.40;6.57;;;10.90;90.30;;;;;;5056240;28;20274;-86
2022/06/01 06:20:50;;;;;;;7.17;6.47;;;10.90;90.40;;;;;;5056551;28;20263;-86
2022/06/01 06:23:16;;;;;;;7.60;6.30;;;10.90;90.40;;;;;;5056940;28;20172;-86
2022/06/01 06:25:42;;;;;;;7.80;7.10;;;10.90;90.50;;;;;;5056336;28;20179;-86
2022/06/01 06:28:09;;;;;;;7.90;6.80;;;10.90;90.50;;;;;;5056549;28;20639;-87
2022/06/01 06:30:36;;;;;;;7.33;6.63;;;10.90;90.60;;;;;;5056708;28;20211;-86
2022/06/01 06:33:01;;;;;;;7.90;7.07;;;11.00;90.70;;;;;;5056464;28;20210;-86
2022/06/01 06:35:27;;;;;;;9.73;6.93;;;10.90;90.80;;;;;;5056926;28;20251;-87
2022/06/01 06:37:52;;;;;;;8.60;7.17;;;11.00;90.90;;;;;;5056304;28;20196;-87
2022/06/01 06:40:18;;;;;;;9.53;7.17;;;11.10;90.90;;;;;;5054625;28;20282;-86
2022/06/01 06:42:43;;;;;;;8.47;7.53;;;11.10;90.90;;;;;;5055697;28;20182;-86
2022/06/01 06:45:09;;;;;;;8.10;6.77;;;11.20;90.90;;;;;;5056028;28;20176;-86
2022/06/01 06:47:35;;;;;;;6.77;6.23;;;11.20;90.90;;;;;;5055991;28;20298;-86
2022/06/01 06:50:03;;;;;;;7.07;6.37;;;11.20;91.00;;;;;;5054758;28;20176;-86
2022/06/01 06:52:29;;;;;;;7.17;6.37;;;11.20;90.90;;;;;;5055922;28;20180;-86
2022/06/01 06:54:55;;;;;;;8.13;6.87;;;11.30;91.00;;;;;;5054776;28;20172;-86
2022/06/01 06:57:20;;;;;;;7.43;6.70;;;11.40;90.80;;;;;;5056024;28;20188;-87
2022/06/01 06:59:48;;;;;;;8.13;7.40;;;11.30;90.80;;;;;;5055902;28;20204;-87
2022/06/01 07:02:13;;;;;;;9.53;8.67;;;11.40;90.80;;;;;;5054530;28;20642;-87
2022/06/01 07:04:39;;;;;;;10.13;9.13;;;11.50;90.80;;;;;;5054248;28;20229;-87
2022/06/01 07:07:04;;;;;;;11.00;9.90;;;11.50;90.60;;;;;;5054360;28;20669;-86
2022/06/01 07:09:30;;;;;;;9.83;8.83;;;11.50;90.40;;;;;;5054019;28;20188;-87
2022/06/01 07:11:55;;;;;;;14.23;10.03;;;11.60;90.10;;;;;;5055711;28;20215;-85
2022/06/01 07:14:21;;;;;;;11.93;10.20;;;11.50;90.10;;;;;;5055439;28;20213;-86
2022/06/01 07:16:46;;;;;;;11.37;10.03;;;11.60;89.90;;;;;;5055249;28;20208;-86
2022/06/01 07:19:12;;;;;;;12.13;10.70;;;11.60;89.60;;;;;;5053379;28;20223;-86
2022/06/01 07:21:38;;;;;;;12.80;10.47;;;11.70;89.60;;;;;;5055242;28;20588;-87
2022/06/01 07:24:05;;;;;;;11.50;10.30;;;11.90;89.50;;;;;;5055167;28;20634;-86
2022/06/01 07:26:36;;;;;;;10.03;9.13;;;11.90;89.20;;;;;;5055065;28;20246;-87
2022/06/01 07:29:03;;;;;;;11.13;9.03;;;12.00;89.10;;;;;;5053955;28;20252;-87
2022/06/01 07:31:29;;;;;;;10.67;9.27;;;12.10;88.60;;;;;;5055034;28;20642;-87
2022/06/01 07:33:55;;;;;;;12.93;8.60;;;12.30;88.60;;;;;;5055172;28;20263;-87
2022/06/01 07:36:21;;;;;;;12.80;7.73;;;12.30;88.30;;;;;;5054967;28;20192;-87
2022/06/01 07:43:05;;;;;;;9.27;8.20;;;12.30;87.20;;;;;;5055343;28;20158;-87
2022/06/01 07:44:40;;;;;;;8.87;7.80;;;12.30;86.50;;;;;;5054758;28;20237;-86
2022/06/01 07:47:08;;;;;;;10.63;8.30;;;12.30;85.70;;;;;;5053205;28;20212;-86
2022/06/01 07:49:33;;;;;;;9.90;8.40;;;12.50;86.20;;;;;;5053405;28;20275;-87
2022/06/01 07:51:59;;;;;;;10.83;9.30;;;12.50;86.10;;;;;;5054736;28;20251;-86
2022/06/01 07:54:25;;;;;;;9.77;8.77;;;12.70;86.70;;;;;;5053287;28;20275;-86
2022/06/01 07:56:51;;;;;;;11.80;8.97;;;12.90;86.80;;;;;;5053250;28;20575;-86
2022/06/01 07:59:17;;;;;;;9.50;8.57;;;13.00;86.60;;;;;;5054594;28;20196;-86
2022/06/01 08:01:43;;;;;;;11.73;8.30;;;13.00;85.60;;;;;;5053806;28;20180;-86
2022/06/01 08:04:10;;;;;;;9.40;8.40;;;13.20;85.90;;;;;;5053725;28;20168;-86
2022/06/01 08:06:38;;;;;;;9.20;8.30;;;13.20;85.40;;;;;;5053838;28;20562;-86
2022/06/01 08:09:04;;;;;;;8.97;8.17;;;13.20;84.80;;;;;;5054568;28;20259;-87
2022/06/01 08:14:15;;;;;;;10.27;9.17;;;13.30;84.80;;;;;;5054659;28;20558;-86
2022/06/01 08:16:41;;;;;;;10.67;8.93;;;13.20;84.50;;;;;;5053359;28;20642;-86
2022/06/01 08:19:09;;;;;;;9.10;8.20;;;13.20;84.70;;;;;;5054434;28;20203;-86
2022/06/01 08:21:36;;;;;;;9.07;8.27;;;13.20;84.10;;;;;;5053695;28;20171;-88
2022/06/01 08:24:02;;;;;;;9.20;8.30;;;13.30;84.30;;;;;;5053543;28;20168;-87
2022/06/01 08:26:28;;;;;;;9.00;8.20;;;13.40;83.90;;;;;;5054437;28;20190;-86
2022/06/01 08:28:53;;;;;;;8.77;7.93;;;13.50;84.20;;;;;;5053170;28;20176;-87
2022/06/01 08:31:19;;;;;;;9.87;7.83;;;13.70;84.60;;;;;;5054361;28;20194;-87
2022/06/01 08:33:44;;;;;;;9.17;7.90;;;13.70;83.40;;;;;;5054339;28;20187;-86
2022/06/01 08:36:10;;;;;;;9.10;8.23;;;13.70;83.90;;;;;;5053748;28;20204;-86
2022/06/01 08:38:35;;;;;;;8.83;7.93;;;13.70;83.10;;;;;;5053699;28;20203;-86
2022/06/01 08:41:08;;;;;;;9.27;8.37;;;13.80;83.50;;;;;;5052705;28;20176;-87
2022/06/01 08:43:44;;;;;;;8.30;7.47;;;14.00;83.80;;;;;;5053801;28;20614;-86
2022/06/01 08:46:12;;;;;;;6.80;6.20;;;14.20;83.50;;;;;;5052219;28;20211;-87
2022/06/01 08:48:41;;;;;;;9.47;6.67;;;14.00;80.30;;;;;;5053578;28;20221;-86
2022/06/01 08:51:08;;;;;;;7.47;6.37;;;14.10;80.50;;;;;;5053540;28;20551;-86
2022/06/01 08:53:34;;;;;;;7.27;6.57;;;14.10;79.90;;;;;;5052519;28;20175;-86
2022/06/01 08:56:09;;;;;;;7.70;6.70;;;14.00;79.10;;;;;;5052460;28;20270;-86
2022/06/01 08:58:58;;;;;;;6.77;5.90;;;14.40;80.90;;;;;;5052425;28;20200;-86
2022/06/01 09:01:43;;;;;;;5.72;5.22;;;14.60;78.70;;;;;;5053791;28;20161;-86
2022/06/01 09:04:35;;;;;;;6.17;5.60;;;14.50;75.80;;;;;;5053554;28;20627;-86
2022/06/01 09:07:22;;;;;;;7.40;6.70;;;14.70;77.30;;;;;;5052276;28;20199;-87
2022/06/01 09:09:59;;;;;;;7.23;6.53;;;14.80;77.40;;;;;;5052568;28;20195;-87
2022/06/01 09:12:25;;;;;;;8.95;6.97;;;14.70;76.60;;;;;;5052765;28;20172;-87
2022/06/01 09:14:55;;;;;;;7.43;6.72;;;14.90;74.80;;;;;;5052837;28;20741;-88
2022/06/01 09:17:21;;;;;;;7.38;6.55;;;15.20;77.00;;;;;;5052923;28;20605;-88
2022/06/01 09:22:40;;;;;;;9.80;6.45;;;15.10;72.40;;;;;;5053549;28;20676;-88
2022/06/01 09:25:08;;;;;;;7.65;6.05;;;15.20;74.30;;;;;;5052585;28;20171;-87
2022/06/01 09:27:47;;;;;;;8.35;6.45;;;15.20;74.40;;;;;;5052251;28;20231;-88
2022/06/01 09:30:44;;;;;;;6.85;6.25;;;15.40;72.70;;;;;;5053763;28;20160;-86
2022/06/01 09:33:21;;;;;;;9.32;6.65;;;15.60;75.10;;;;;;5036552;28;20188;-87
2022/06/01 09:35:59;;;;;;;6.70;5.97;;;15.60;73.10;;;;;;5053502;28;20163;-87
2022/06/01 09:38:39;;;;;;;7.38;6.10;;;16.10;71.10;;;;;;5051873;28;20176;-87
2022/06/01 09:41:31;;;;;;;6.57;5.97;;;15.40;67.90;;;;;;5052879;28;20195;-87
2022/06/01 09:44:18;;;;;;;7.22;5.30;;;15.50;70.30;;;;;;5055484;28;20255;-87
2022/06/01 09:46:56;;;;;;;6.25;5.38;;;15.80;71.30;;;;;;5057255;28;20203;-86
2022/06/01 09:49:31;;;;;;;6.10;5.40;;;16.00;71.60;;;;;;5055728;28;20737;-86
2022/06/01 09:52:02;;;;;;;6.97;5.88;;;15.60;70.70;;;;;;5055806;28;20249;-87
2022/06/01 09:54:34;;;;;;;6.43;5.57;;;15.50;71.50;;;;;;5057292;28;20210;-87
2022/06/01 09:57:19;;;;;;;10.40;5.55;;;15.30;71.80;;;;;;5056946;28;20184;-87
2022/06/01 10:08:28;;;;;;;8.77;6.85;;;15.50;73.20;;;;;;5039311;28;20199;-86
2022/06/01 10:11:29;;;;;;;6.15;5.65;;;15.40;73.70;;;;;;5056761;28;20159;-86
2022/06/01 10:14:05;;;;;;;6.65;6.05;;;15.40;73.00;;;;;;5053176;28;20184;-87
2022/06/01 10:16:46;;;;;;;9.80;6.22;;;15.40;73.20;;;;;;5055486;28;20192;-88
2022/06/01 10:19:14;;;;;;;7.18;6.25;;;15.20;74.00;;;;;;5055433;28;20195;-86
2022/06/01 10:21:56;;;;;;;6.53;5.93;;;15.30;73.90;;;;;;5056635;28;20196;-88
2022/06/01 10:24:31;;;;;;;10.10;5.70;;;15.20;74.10;;;;;;5056725;28;20152;-82
2022/06/01 10:26:59;;;;;;;7.70;6.32;;;15.20;75.00;;;;;;5055410;28;20195;-83
2022/06/01 10:29:43;;;;;;;8.50;6.35;;;15.40;76.10;;;;;;5055078;28;20179;-83
2022/06/01 10:32:43;;;;;;;7.32;6.40;;;15.70;75.30;;;;;;5056639;28;20160;-85
2022/06/01 10:35:15;;;;;;;10.57;6.63;;;16.10;74.60;;;;;;5041272;28;20547;-84
2022/06/01 10:37:47;;;;;;;5.78;5.28;;;16.10;74.20;;;;;;5054816;28;20196;-84
2022/06/01 10:40:20;;;;;;;5.15;4.70;;;16.20;70.70;;;;;;5054663;28;20263;-83
2022/06/01 10:46:03;;;;;;;6.63;5.57;;;15.90;69.50;;;;;;5056478;28;20209;-84
2022/06/01 10:48:36;;;;;;;6.38;5.20;;;15.80;69.40;;;;;;5055939;28;20161;-84
2022/06/01 10:51:08;;;;;;;7.97;5.95;;;16.00;70.20;;;;;;5055937;28;20186;-84
2022/06/01 10:53:52;;;;;;;6.00;5.40;;;15.70;69.30;;;;;;5053951;28;20225;-84
2022/06/01 10:56:20;;;;;;;6.60;5.45;;;15.90;69.60;;;;;;5054046;28;20195;-84
2022/06/01 10:58:48;;;;;;;8.13;6.03;;;15.80;69.70;;;;;;5055441;28;20199;-84
2022/06/01 11:01:39;;;;;;;6.97;6.20;;;16.00;69.60;;;;;;5054296;28;20180;-85
2022/06/01 11:04:44;;;;;;;7.95;6.80;;;16.40;68.30;;;;;;5055268;28;20710;-85
2022/06/01 11:07:22;;;;;;;6.93;6.22;;;17.00;68.60;;;;;;5054064;28;20222;-85
2022/06/01 11:09:55;;;;;;;7.05;6.32;;;17.10;65.40;;;;;;5055266;28;20152;-84
2022/06/01 11:12:36;;;;;;;8.63;7.07;;;17.30;67.00;;;;;;5055323;28;20152;-84
2022/06/01 11:15:16;;;;;;;9.18;8.05;;;17.40;65.10;;;;;;5055379;28;20575;-84
2022/06/01 11:18:28;;;;;;;8.32;7.32;;;17.20;67.00;;;;;;5053915;28;20206;-84
2022/06/01 11:21:31;;;;;;;7.53;6.55;;;17.30;64.90;;;;;;5037880;28;20202;-88
2022/06/01 11:24:15;;;;;;;8.80;5.75;;;17.50;63.20;;;;;;5056036;28;20168;-89
2022/06/01 11:27:09;;;;;;;7.13;6.13;;;17.20;65.10;;;;;;5055664;28;20588;-88
2022/06/01 11:30:03;;;;;;;8.40;6.32;;;17.20;63.50;;;;;;5056402;28;20179;-88
2022/06/01 11:32:42;;;;;;;8.75;6.55;;;17.10;66.20;;;;;;5045568;28;20192;-89
2022/06/01 11:35:20;;;;;;;7.72;7.03;;;17.00;66.90;;;;;;5054551;28;20592;-88
2022/06/01 11:38:01;;;;;;;8.50;7.63;;;17.50;67.40;;;;;;5055531;28;20194;-88
2022/06/01 11:40:40;;;;;;;10.95;8.48;;;17.90;64.60;;;;;;5054189;28;20623;-88
2022/06/01 11:43:29;;;;;;;10.77;9.13;;;18.20;64.30;;;;;;5054262;28;20172;-88
2022/06/01 11:46:19;;;;;;;10.05;9.05;;;18.10;62.40;;;;;;5054622;28;20666;-88
2022/06/01 11:48:48;;;;;;;11.32;8.52;;;17.70;64.00;;;;;;5041226;28;20210;-88
2022/06/01 11:51:21;;;;;;;9.98;8.50;;;17.70;63.90;;;;;;5055660;28;20658;-87
2022/06/01 11:54:14;;;;;;;12.02;9.02;;;17.60;61.40;;;;;;5053932;28;20263;-87
2022/06/01 11:56:54;;;;;;;8.95;7.70;;;17.90;64.70;;;;;;5053777;28;20287;-88
2022/06/01 11:59:34;;;;;;;10.40;7.95;;;18.20;61.60;;;;;;5054816;28;20227;-88
2022/06/01 12:02:40;;;;;;;10.95;8.15;;;18.20;61.90;;;;;;5053571;28;20600;-88
2022/06/01 12:05:20;;;;;;;11.95;6.93;;;18.20;63.90;;;;;;5053798;28;20251;-87
2022/06/01 12:07:50;;;;;;;6.07;2.67;;;17.90;63.30;;;;;;5055312;28;20194;-87
2022/06/01 12:10:31;;;;;;;1.65;1.30;;;17.80;59.60;;;;;;5053834;28;20176;-87
2022/06/01 12:13:01;;;;;;;1.77;1.05;;;17.70;57.10;;;;;;5053696;28;20212;-87
2022/06/01 12:15:32;;;;;;;1.20;1.10;;;17.60;55.20;;;;;;5055428;28;20179;-87
2022/06/01 12:18:06;;;;;;;1.55;1.20;;;17.20;55.10;;;;;;5055188;28;20192;-87
2022/06/01 12:20:34;;;;;;;1.63;1.20;;;16.70;57.40;;;;;;5055306;28;20230;-87
2022/06/01 12:28:49;;;;;;;2.53;1.98;;;15.80;60.40;;;;;;5054852;28;20716;-87
2022/06/01 12:31:21;;;;;;;4.68;2.00;;;15.80;61.50;;;;;;5054441;28;20617;-87
2022/06/01 12:34:14;;;;;;;3.13;1.95;;;15.50;61.30;;;;;;5054317;28;20168;-87
2022/06/01 12:36:48;;;;;;;2.20;2.00;;;15.40;62.00;;;;;;5054103;28;20669;-87
2022/06/01 12:39:23;;;;;;;3.47;1.90;;;15.20;63.20;;;;;;5053891;28;20200;-87
2022/06/01 12:42:27;;;;;;;5.68;2.42;;;15.20;64.60;;;;;;5052661;28;20553;-89
2022/06/01 12:44:55;;;;;;;5.88;2.63;;;14.90;68.80;;;;;;5039382;28;20164;-89
2022/06/01 12:47:37;;;;;;;8.55;2.75;;;14.70;70.90;;;;;;5052685;28;20369;-89
2022/06/01 12:50:23;;;;;;;2.60;2.40;;;14.30;73.20;;;;;;5052652;28;20302;-89
2022/06/01 12:53:08;;;;;;;2.50;2.30;;;13.80;73.80;;;;;;5054035;28;20241;-90
2022/06/01 12:55:34;;;;;;;3.20;2.90;;;13.40;74.10;;;;;;5053535;28;20310;-90
2022/06/01 12:57:59;;;;;;;3.00;2.80;;;13.50;75.40;;;;;;5052753;28;20238;-90
2022/06/01 13:00:29;;;;;;;4.00;3.60;;;13.50;76.10;;;;;;5052591;28;20203;-85
2022/06/01 13:02:55;;;;;;;4.83;3.50;;;13.40;77.70;;;;;;5052217;28;20184;-85
2022/06/01 13:05:22;;;;;;;4.30;3.90;;;13.30;78.00;;;;;;5052110;28;20176;-86
2022/06/01 13:07:51;;;;;;;4.50;4.03;;;13.50;79.10;;;;;;5053714;28;20654;-87
2022/06/01 13:10:27;;;;;;;4.67;4.23;;;13.60;79.20;;;;;;5052288;28;20176;-86
2022/06/01 13:13:05;;;;;;;4.87;4.37;;;13.70;79.20;;;;;;5054135;28;20166;-86
2022/06/01 13:15:31;;;;;;;4.87;4.30;;;13.50;79.40;;;;;;5052233;28;20267;-87
2022/06/01 13:17:59;;;;;;;4.67;4.23;;;13.60;80.10;;;;;;5052422;28;20223;-86
2022/06/01 13:20:33;;;;;;;5.03;4.50;;;13.70;80.40;;;;;;5052019;28;20200;-87
2022/06/01 13:23:00;;;;;;;6.47;4.70;;;13.70;80.20;;;;;;5053484;28;20614;-87
2022/06/01 13:25:34;;;;;;;4.90;4.50;;;13.80;80.10;;;;;;5053467;28;20168;-87
2022/06/01 13:28:00;;;;;;;8.50;5.60;;;13.80;80.60;;;;;;5052020;28;20219;-88
2022/06/01 13:30:29;;;;;;;6.87;6.17;;;13.60;79.40;;;;;;5051945;28;20647;-87
2022/06/01 13:32:57;;;;;;;7.97;7.17;;;13.00;80.90;;;;;;5052084;28;20248;-87
2022/06/01 13:35:57;;;;;;;8.53;6.77;;;13.10;82.90;;;;;;5053653;28;20198;-86
2022/06/01 13:38:34;;;;;;;8.30;7.50;;;13.20;83.60;;;;;;5019761;28;20283;-85
2022/06/01 13:41:33;;;;;;;8.53;7.30;;;13.30;83.40;;;;;;5052222;28;20170;-85
2022/06/01 13:43:58;;;;;;;9.43;7.87;;;13.20;83.50;;;;;;5047185;28;20184;-85
2022/06/01 13:46:34;;;;;;;9.17;7.90;;;13.30;84.30;;;;;;5051867;28;20218;-86